Time;durP1;ratioP1;P1;durP2;ratioP2;P2;SDS_P1;SDS_P2;PMS_P1;PMS_P2;Temp;Humidity;BMP_temperature;BMP_pressure;BME280_temperature;BME280_humidity;BME280_pressure;Samples;Min_cycle;Max_cycle;Signal;HPM_P1;HPM_P2
2023/07/14 00:01:26;;;;;;;16.57;11.00;;;15.30;89.70;;;;;;5092378;28;20312;-69
2023/07/14 00:03:52;;;;;;;18.17;10.93;;;15.30;89.50;;;;;;5092956;28;20405;-69
2023/07/14 00:06:18;;;;;;;14.87;10.77;;;15.40;89.20;;;;;;5092766;28;20637;-69
2023/07/14 00:08:45;;;;;;;13.37;9.83;;;15.40;89.20;;;;;;5093022;28;20773;-69
2023/07/14 00:11:17;;;;;;;14.70;10.30;;;15.40;89.20;;;;;;5074341;28;20292;-69
2023/07/14 00:13:43;;;;;;;19.67;10.43;;;15.40;89.10;;;;;;5081985;28;20306;-69
2023/07/14 00:16:15;;;;;;;14.63;10.13;;;15.50;89.40;;;;;;5093008;28;20764;-69
2023/07/14 00:18:41;;;;;;;15.67;10.40;;;15.50;89.40;;;;;;5063357;28;20865;-69
2023/07/14 00:21:22;;;;;;;14.77;10.27;;;15.50;89.20;;;;;;5084206;28;20373;-69
2023/07/14 00:23:49;;;;;;;18.47;11.87;;;15.60;89.50;;;;;;5072671;28;20293;-70
2023/07/14 00:26:19;;;;;;;16.63;11.73;;;15.60;89.50;;;;;;5100766;28;20396;-70
2023/07/14 00:28:49;;;;;;;15.57;11.23;;;15.60;89.70;;;;;;5092108;28;20281;-70
2023/07/14 00:31:17;;;;;;;18.70;11.93;;;15.60;89.50;;;;;;5103259;28;20282;-70
2023/07/14 00:33:46;;;;;;;18.50;11.90;;;15.60;89.60;;;;;;5084725;28;20363;-70
2023/07/14 00:36:12;;;;;;;15.03;10.73;;;15.60;89.60;;;;;;5066702;28;20294;-70
2023/07/14 00:38:39;;;;;;;11.70;9.77;;;15.60;89.60;;;;;;5085980;28;20285;-70
2023/07/14 00:41:11;;;;;;;18.40;12.10;;;15.60;89.70;;;;;;5091948;28;20350;-70
2023/07/14 00:43:37;;;;;;;13.63;10.53;;;15.60;90.10;;;;;;5091693;28;20301;-70
2023/07/14 00:46:04;;;;;;;16.97;11.70;;;15.60;90.30;;;;;;5091803;28;20293;-70
2023/07/14 00:48:30;;;;;;;16.73;11.47;;;15.60;90.30;;;;;;5074965;28;20285;-70
2023/07/14 00:51:06;;;;;;;18.63;11.47;;;15.60;90.40;;;;;;5097273;28;20319;-70
2023/07/14 00:53:38;;;;;;;18.10;11.90;;;15.60;90.30;;;;;;5074758;28;20807;-70
2023/07/14 00:56:37;;;;;;;16.03;11.40;;;15.60;90.30;;;;;;5092048;28;20282;-70
2023/07/14 00:59:14;;;;;;;15.43;11.40;;;15.60;90.40;;;;;;5090713;28;20388;-70
2023/07/14 01:02:10;;;;;;;14.17;11.03;;;15.60;90.40;;;;;;5088874;28;20378;-70
2023/07/14 01:05:06;;;;;;;17.73;10.60;;;15.60;90.40;;;;;;5085354;28;20312;-70
2023/07/14 01:07:37;;;;;;;12.83;10.53;;;15.50;90.50;;;;;;5054975;28;20359;-70
2023/07/14 01:10:04;;;;;;;16.33;11.60;;;15.50;90.40;;;;;;5091634;28;20277;-70
2023/07/14 01:12:33;;;;;;;13.93;11.23;;;15.50;90.50;;;;;;5092414;28;20273;-70
2023/07/14 01:15:01;;;;;;;16.43;11.73;;;15.50;90.60;;;;;;5090774;28;20286;-70
2023/07/14 01:17:27;;;;;;;16.50;12.47;;;15.50;90.40;;;;;;5094237;28;20274;-70
2023/07/14 01:20:01;;;;;;;16.13;11.57;;;15.50;90.80;;;;;;5072932;28;20585;-70
2023/07/14 01:22:46;;;;;;;18.03;12.23;;;15.50;90.60;;;;;;5090866;28;20414;-70
2023/07/14 01:25:26;;;;;;;21.20;11.40;;;15.40;90.70;;;;;;5076932;28;20695;-70
2023/07/14 01:27:51;;;;;;;15.70;11.53;;;15.40;90.70;;;;;;5091319;28;20483;-70
2023/07/14 01:30:19;;;;;;;15.33;11.80;;;15.40;90.90;;;;;;5091080;28;20286;-70
2023/07/14 01:32:49;;;;;;;14.43;11.50;;;15.30;91.10;;;;;;5070751;28;20035;-70
2023/07/14 01:35:17;;;;;;;16.70;11.87;;;15.30;90.90;;;;;;5090540;28;20296;-70
2023/07/14 01:37:45;;;;;;;16.30;12.13;;;15.20;91.00;;;;;;5081743;28;20296;-70
2023/07/14 01:40:14;;;;;;;13.53;10.80;;;15.20;91.60;;;;;;5081476;28;20403;-70
2023/07/14 01:42:48;;;;;;;12.63;10.67;;;15.20;91.40;;;;;;5087290;28;20292;-70
2023/07/14 01:45:17;;;;;;;16.40;11.43;;;15.10;91.20;;;;;;5085041;28;20285;-70
2023/07/14 01:47:47;;;;;;;15.60;11.37;;;15.10;91.00;;;;;;5072607;28;20369;-70
2023/07/14 01:50:25;;;;;;;16.93;11.00;;;15.10;91.20;;;;;;5074702;28;20289;-70
2023/07/14 01:52:55;;;;;;;17.50;10.93;;;15.00;91.50;;;;;;5087789;28;20305;-70
2023/07/14 01:55:23;;;;;;;15.17;11.20;;;15.00;91.80;;;;;;5067660;28;20286;-70
2023/07/14 01:57:53;;;;;;;13.90;10.33;;;14.90;92.00;;;;;;5077117;28;20423;-70
2023/07/14 02:00:20;;;;;;;17.00;11.00;;;14.90;91.80;;;;;;5076899;28;20305;-70
2023/07/14 02:02:48;;;;;;;16.17;11.07;;;14.90;91.80;;;;;;5088055;28;20824;-70
2023/07/14 02:05:18;;;;;;;16.67;10.30;;;14.90;91.80;;;;;;5085014;28;20326;-70
2023/07/14 02:07:46;;;;;;;17.87;11.30;;;14.80;91.80;;;;;;5083170;28;20663;-70
2023/07/14 02:10:19;;;;;;;15.87;9.97;;;14.80;92.10;;;;;;5073859;28;20364;-70
2023/07/14 02:12:46;;;;;;;13.37;9.87;;;14.80;92.10;;;;;;5101081;28;20289;-70
2023/07/14 02:15:23;;;;;;;13.80;9.07;;;14.80;92.20;;;;;;5072690;28;20684;-70
2023/07/14 02:17:50;;;;;;;18.77;9.13;;;14.80;92.30;;;;;;5079922;28;20392;-70
2023/07/14 02:20:26;;;;;;;13.03;9.40;;;14.80;92.20;;;;;;5076696;28;20333;-70
2023/07/14 02:22:54;;;;;;;17.93;9.30;;;14.80;92.40;;;;;;5091577;28;20292;-70
2023/07/14 02:25:23;;;;;;;13.60;9.77;;;14.70;92.60;;;;;;5094939;28;20784;-70
2023/07/14 02:27:49;;;;;;;13.07;8.63;;;14.80;92.80;;;;;;5093245;28;20636;-70
2023/07/14 02:30:18;;;;;;;16.30;9.03;;;14.80;92.80;;;;;;5094787;28;20320;-70
2023/07/14 02:32:49;;;;;;;13.93;8.47;;;14.80;92.70;;;;;;5087014;28;20120;-70
2023/07/14 02:35:19;;;;;;;11.47;8.70;;;14.80;92.70;;;;;;5071354;28;20645;-70
2023/07/14 02:38:04;;;;;;;12.43;7.67;;;14.80;92.90;;;;;;5080276;28;20274;-70
2023/07/14 02:40:36;;;;;;;15.30;8.50;;;14.70;92.90;;;;;;5099573;28;20389;-70
2023/07/14 02:43:08;;;;;;;13.93;8.73;;;14.70;93.00;;;;;;5087366;28;20376;-70
2023/07/14 02:45:39;;;;;;;12.00;7.93;;;14.70;92.70;;;;;;5105550;28;20281;-70
2023/07/14 02:48:08;;;;;;;11.90;7.67;;;14.60;92.60;;;;;;5102132;28;20438;-70
2023/07/14 02:50:34;;;;;;;11.70;7.30;;;14.60;93.30;;;;;;5078230;28;20293;-70
2023/07/14 02:53:00;;;;;;;15.50;7.13;;;14.60;93.00;;;;;;5059218;28;20270;-70
2023/07/14 02:55:26;;;;;;;10.07;6.90;;;14.50;93.00;;;;;;5082418;28;20036;-70
2023/07/14 02:57:51;;;;;;;13.97;7.33;;;14.50;93.20;;;;;;5093868;28;20450;-70
2023/07/14 03:00:18;;;;;;;16.77;6.43;;;14.50;93.20;;;;;;5093858;28;20035;-70
2023/07/14 03:02:43;;;;;;;12.73;6.53;;;14.50;93.30;;;;;;5094204;28;20506;-70
2023/07/14 03:05:11;;;;;;;11.17;6.43;;;14.50;93.60;;;;;;5090190;28;20293;-70
2023/07/14 03:07:37;;;;;;;14.00;6.57;;;14.50;94.20;;;;;;5093733;28;20053;-70
2023/07/14 03:10:04;;;;;;;9.23;5.90;;;14.50;94.00;;;;;;5102186;28;20330;-70
2023/07/14 03:12:30;;;;;;;12.67;6.17;;;14.50;93.80;;;;;;5076970;28;20368;-70
2023/07/14 03:14:55;;;;;;;13.13;5.87;;;14.50;94.00;;;;;;5079811;28;20377;-70
2023/07/14 03:17:22;;;;;;;9.67;6.53;;;14.50;94.00;;;;;;5091681;28;20066;-70
2023/07/14 03:19:47;;;;;;;11.27;5.80;;;14.50;94.30;;;;;;5087867;28;20044;-70
2023/07/14 03:22:13;;;;;;;13.30;6.00;;;14.50;94.10;;;;;;5071620;28;20313;-70
2023/07/14 03:24:39;;;;;;;11.03;6.10;;;14.50;94.10;;;;;;5093253;28;20032;-70
2023/07/14 03:27:05;;;;;;;11.93;6.77;;;14.40;94.00;;;;;;5076271;28;20118;-70
2023/07/14 03:29:30;;;;;;;11.80;6.77;;;14.40;94.20;;;;;;5078999;28;20040;-70
2023/07/14 03:31:56;;;;;;;11.03;6.60;;;14.40;94.10;;;;;;5081283;28;20403;-70
2023/07/14 03:34:22;;;;;;;11.47;6.40;;;14.40;94.00;;;;;;5092285;28;20060;-70
2023/07/14 03:36:49;;;;;;;10.73;6.53;;;14.40;94.30;;;;;;5079306;28;20032;-70
2023/07/14 03:39:26;;;;;;;13.30;7.50;;;14.40;94.30;;;;;;5076473;28;20300;-70
2023/07/14 03:41:54;;;;;;;10.87;7.37;;;14.40;95.00;;;;;;5084632;28;20313;-70
2023/07/14 03:44:20;;;;;;;10.47;7.20;;;14.30;94.80;;;;;;5080617;28;20278;-69
2023/07/14 03:46:46;;;;;;;10.50;7.00;;;14.30;94.90;;;;;;5079565;28;20289;-69
2023/07/14 03:49:13;;;;;;;15.70;7.77;;;14.30;94.60;;;;;;5089065;28;20282;-69
2023/07/14 03:51:38;;;;;;;12.23;6.43;;;14.30;94.70;;;;;;5081628;28;20089;-69
2023/07/14 03:54:05;;;;;;;13.20;7.10;;;14.30;94.70;;;;;;5095852;28;20289;-69
2023/07/14 03:56:30;;;;;;;11.73;6.87;;;14.30;94.70;;;;;;5082792;28;20117;-69
2023/07/14 03:58:56;;;;;;;13.83;6.90;;;14.30;94.80;;;;;;5080526;28;20835;-69
2023/07/14 04:01:22;;;;;;;15.40;7.77;;;14.40;94.90;;;;;;5069898;28;20043;-69
2023/07/14 04:03:48;;;;;;;11.33;6.40;;;14.40;94.80;;;;;;5085118;28;20391;-69
2023/07/14 04:06:14;;;;;;;11.43;6.40;;;14.40;94.90;;;;;;5083065;28;20281;-69
2023/07/14 04:08:43;;;;;;;13.47;6.37;;;14.50;94.90;;;;;;5092885;28;20039;-69
2023/07/14 04:11:10;;;;;;;10.87;6.57;;;14.50;94.70;;;;;;5092426;28;20285;-69
2023/07/14 04:13:36;;;;;;;14.07;6.60;;;14.50;94.70;;;;;;5089328;28;20344;-70
2023/07/14 04:16:08;;;;;;;14.33;6.80;;;14.50;95.10;;;;;;5075791;28;20941;-70
2023/07/14 04:18:36;;;;;;;10.00;6.20;;;14.50;94.80;;;;;;5093007;28;20398;-70
2023/07/14 04:21:12;;;;;;;10.77;6.40;;;14.60;94.80;;;;;;5086580;28;20446;-70
2023/07/14 04:23:39;;;;;;;14.23;6.60;;;14.60;94.50;;;;;;5092823;28;20410;-70
2023/07/14 04:26:07;;;;;;;12.40;6.70;;;14.60;94.60;;;;;;5074987;28;20281;-70
2023/07/14 04:28:35;;;;;;;11.80;6.23;;;14.70;94.80;;;;;;5074741;28;20334;-70
2023/07/14 04:31:01;;;;;;;10.40;6.90;;;14.70;94.80;;;;;;5064777;28;20793;-70
2023/07/14 04:33:27;;;;;;;11.80;7.17;;;14.70;94.60;;;;;;5078988;28;20293;-70
2023/07/14 04:35:54;;;;;;;12.77;6.83;;;14.70;94.60;;;;;;5075236;28;20335;-70
2023/07/14 04:38:21;;;;;;;10.17;6.63;;;14.70;94.60;;;;;;5078312;28;20492;-70
2023/07/14 04:40:47;;;;;;;11.77;6.60;;;14.70;94.50;;;;;;5062448;28;20305;-70
2023/07/14 04:43:15;;;;;;;12.47;6.83;;;14.70;94.20;;;;;;5076941;28;20284;-70
2023/07/14 04:45:44;;;;;;;14.63;7.17;;;14.80;94.40;;;;;;5082866;28;20027;-70
2023/07/14 04:48:13;;;;;;;10.83;6.40;;;14.90;94.80;;;;;;5070984;28;20285;-70
2023/07/14 04:50:39;;;;;;;11.97;6.33;;;15.10;94.90;;;;;;5080154;28;20622;-70
2023/07/14 04:53:06;;;;;;;10.93;6.47;;;15.30;94.20;;;;;;5091657;28;20321;-70
2023/07/14 04:55:36;;;;;;;12.07;6.00;;;15.40;93.90;;;;;;5069749;28;20278;-70
2023/07/14 04:58:02;;;;;;;9.60;5.40;;;15.50;93.60;;;;;;5070856;28;20297;-70
2023/07/14 05:00:28;;;;;;;12.03;5.80;;;15.70;93.90;;;;;;5085033;28;20736;-70
2023/07/14 05:02:54;;;;;;;10.83;6.10;;;15.90;93.90;;;;;;5090706;28;20365;-70
2023/07/14 05:05:21;;;;;;;10.43;6.07;;;16.20;93.60;;;;;;5078446;28;20101;-70
2023/07/14 05:07:48;;;;;;;11.23;5.60;;;16.50;93.70;;;;;;5082039;28;20114;-70
2023/07/14 05:10:18;;;;;;;9.60;5.27;;;17.00;93.20;;;;;;5055897;28;20282;-70
2023/07/14 05:12:44;;;;;;;10.20;5.77;;;17.70;91.60;;;;;;5073237;28;20281;-70
2023/07/14 05:15:10;;;;;;;8.53;4.90;;;18.30;89.90;;;;;;5075548;28;20304;-70
2023/07/14 05:17:37;;;;;;;11.90;5.33;;;18.80;87.50;;;;;;5061997;28;20036;-70
2023/07/14 05:20:06;;;;;;;8.90;4.70;;;19.20;85.60;;;;;;5081359;28;20318;-71
2023/07/14 05:22:32;;;;;;;11.00;4.73;;;19.60;84.20;;;;;;5062259;28;20286;-71
2023/07/14 05:24:57;;;;;;;11.60;4.87;;;19.80;82.80;;;;;;5077587;28;20675;-71
2023/07/14 05:27:23;;;;;;;8.97;4.00;;;20.00;81.80;;;;;;5085738;28;20361;-70
2023/07/14 05:29:53;;;;;;;10.73;4.30;;;20.20;80.00;;;;;;5081601;28;20043;-70
2023/07/14 05:32:21;;;;;;;9.93;4.83;;;20.20;79.20;;;;;;5087672;28;20053;-70
2023/07/14 05:34:48;;;;;;;13.10;4.70;;;20.10;78.70;;;;;;5071137;28;20714;-70
2023/07/14 05:37:14;;;;;;;9.70;4.40;;;19.80;78.10;;;;;;5084198;28;20281;-70
2023/07/14 05:39:40;;;;;;;9.00;4.10;;;19.50;81.00;;;;;;5072920;28;20301;-70
2023/07/14 05:42:06;;;;;;;11.33;4.43;;;19.60;82.50;;;;;;5084326;28;20313;-70
2023/07/14 05:44:32;;;;;;;10.03;4.40;;;19.90;82.30;;;;;;5076907;28;20048;-70
2023/07/14 05:46:58;;;;;;;13.73;4.43;;;20.40;80.50;;;;;;5087440;28;20551;-70
2023/07/14 05:49:23;;;;;;;8.20;3.80;;;21.00;78.60;;;;;;5091616;28;20031;-70
2023/07/14 05:51:51;;;;;;;10.97;4.77;;;21.50;76.60;;;;;;5091589;28;20110;-70
2023/07/14 05:54:17;;;;;;;7.80;4.10;;;21.90;75.20;;;;;;5086760;28;20044;-71
2023/07/14 05:56:42;;;;;;;10.37;4.50;;;22.30;73.40;;;;;;5082692;28;20043;-71
2023/07/14 05:59:08;;;;;;;9.93;4.63;;;22.60;71.40;;;;;;5088337;28;20499;-71
2023/07/14 06:01:34;;;;;;;10.03;4.37;;;22.40;70.30;;;;;;5096579;28;20051;-71
2023/07/14 06:04:00;;;;;;;14.37;4.20;;;22.00;71.40;;;;;;5074081;28;20040;-71
2023/07/14 06:06:26;;;;;;;8.37;4.40;;;21.60;71.50;;;;;;5090361;28;20036;-71
2023/07/14 06:08:53;;;;;;;8.67;4.43;;;21.20;73.20;;;;;;5090914;28;20093;-71
2023/07/14 06:11:19;;;;;;;12.37;3.73;;;20.90;74.60;;;;;;5094878;28;20166;-70
2023/07/14 06:13:45;;;;;;;8.23;3.50;;;20.90;75.20;;;;;;5084825;28;20075;-70
2023/07/14 06:16:11;;;;;;;8.87;4.33;;;21.20;74.20;;;;;;5090805;28;20039;-70
2023/07/14 06:18:36;;;;;;;8.27;3.87;;;21.10;73.70;;;;;;5100178;28;20071;-70
2023/07/14 06:21:02;;;;;;;9.43;3.90;;;21.00;73.90;;;;;;5072620;28;20047;-70
2023/07/14 06:23:28;;;;;;;9.97;3.73;;;21.20;72.90;;;;;;5073911;28;20043;-71
2023/07/14 06:25:54;;;;;;;12.17;4.03;;;21.30;71.80;;;;;;5078869;28;20036;-71
2023/07/14 06:28:20;;;;;;;9.93;4.23;;;21.20;71.70;;;;;;5079461;28;20055;-71
2023/07/14 06:30:46;;;;;;;9.10;4.10;;;20.90;72.30;;;;;;5104845;28;20035;-71
2023/07/14 06:33:12;;;;;;;9.90;4.70;;;20.70;73.20;;;;;;5073337;28;20107;-71
2023/07/14 06:35:39;;;;;;;7.53;3.73;;;20.90;73.30;;;;;;5073808;28;20052;-71
2023/07/14 06:38:05;;;;;;;6.97;3.87;;;21.50;71.30;;;;;;5076418;28;20044;-71
2023/07/14 06:40:31;;;;;;;10.03;4.37;;;21.80;69.60;;;;;;5085989;28;20059;-71
2023/07/14 06:43:00;;;;;;;7.67;4.27;;;22.10;68.90;;;;;;5095854;28;20039;-71
2023/07/14 06:45:27;;;;;;;7.63;4.33;;;22.20;67.70;;;;;;5089354;28;21053;-71
2023/07/14 06:47:53;;;;;;;10.50;4.90;;;22.30;67.50;;;;;;5084433;28;20074;-71
2023/07/14 06:50:18;;;;;;;10.03;4.10;;;22.50;67.20;;;;;;5073667;28;20119;-71
2023/07/14 06:52:45;;;;;;;7.70;3.67;;;22.50;66.80;;;;;;5079569;28;20040;-71
2023/07/14 06:55:10;;;;;;;7.57;3.90;;;22.60;66.20;;;;;;5073623;28;20480;-71
2023/07/14 06:57:36;;;;;;;10.03;4.10;;;22.60;65.90;;;;;;5075689;28;20031;-71
2023/07/14 07:00:05;;;;;;;9.60;4.17;;;22.50;65.70;;;;;;5090068;28;20130;-71
2023/07/14 07:02:31;;;;;;;8.60;4.33;;;22.50;65.80;;;;;;5086860;28;20123;-71
2023/07/14 07:04:56;;;;;;;8.97;4.20;;;22.50;65.60;;;;;;5074552;28;20134;-71
2023/07/14 07:07:22;;;;;;;10.00;4.27;;;22.40;65.40;;;;;;5094363;28;20043;-71
2023/07/14 07:09:48;;;;;;;11.40;4.90;;;22.10;66.30;;;;;;5082318;28;20039;-71
2023/07/14 07:12:14;;;;;;;8.63;4.50;;;22.00;67.10;;;;;;5098031;28;20031;-71
2023/07/14 07:14:39;;;;;;;11.00;4.77;;;22.00;67.50;;;;;;5091296;28;20035;-71
2023/07/14 07:17:05;;;;;;;12.93;4.07;;;21.80;67.40;;;;;;5092128;28;20031;-71
2023/07/14 07:19:32;;;;;;;12.63;4.33;;;21.70;67.40;;;;;;5089707;28;20044;-71
2023/07/14 07:21:58;;;;;;;9.67;4.37;;;21.40;67.20;;;;;;5068701;28;20411;-71
2023/07/14 07:24:24;;;;;;;8.77;4.17;;;21.20;67.80;;;;;;5089648;28;20324;-71
2023/07/14 07:26:50;;;;;;;7.57;3.93;;;21.00;68.20;;;;;;5087196;28;20128;-71
2023/07/14 07:29:16;;;;;;;8.20;4.20;;;20.80;69.20;;;;;;5082717;28;20074;-71
2023/07/14 07:31:41;;;;;;;7.70;4.70;;;20.70;70.10;;;;;;5068544;28;20067;-71
2023/07/14 07:34:08;;;;;;;8.73;4.53;;;20.70;70.00;;;;;;5086756;28;20060;-71
2023/07/14 07:36:34;;;;;;;8.43;4.70;;;20.70;70.20;;;;;;5076662;28;20391;-71
2023/07/14 07:39:00;;;;;;;8.97;4.57;;;20.80;70.30;;;;;;5093033;28;20046;-71
2023/07/14 07:41:27;;;;;;;8.23;4.27;;;20.90;69.80;;;;;;5093201;28;20032;-71
2023/07/14 07:43:53;;;;;;;10.93;4.17;;;20.90;69.50;;;;;;5088566;28;20085;-71
2023/07/14 07:46:21;;;;;;;8.50;3.90;;;20.90;69.30;;;;;;5087755;28;20089;-71
2023/07/14 07:48:47;;;;;;;6.23;4.00;;;21.00;69.00;;;;;;5087422;28;20116;-71
2023/07/14 07:51:14;;;;;;;7.30;3.53;;;21.10;68.90;;;;;;5058689;28;20043;-71
2023/07/14 07:53:40;;;;;;;7.13;3.87;;;21.20;69.10;;;;;;5078607;28;20104;-71
2023/07/14 07:56:05;;;;;;;6.83;3.73;;;21.30;67.20;;;;;;5066910;28;20044;-71
2023/07/14 07:58:31;;;;;;;8.80;3.40;;;21.30;66.60;;;;;;5072130;28;20400;-71
2023/07/14 08:01:02;;;;;;;7.07;3.63;;;21.30;66.40;;;;;;5084139;28;20038;-71
2023/07/14 08:03:29;;;;;;;7.47;3.50;;;21.30;66.90;;;;;;5076261;28;20031;-71
2023/07/14 08:06:00;;;;;;;9.70;4.70;;;21.40;67.10;;;;;;5084874;28;20503;-71
2023/07/14 08:08:26;;;;;;;7.30;3.60;;;21.40;67.20;;;;;;5086781;28;20403;-71
2023/07/14 08:10:52;;;;;;;8.80;3.30;;;21.30;67.30;;;;;;5083858;28;20539;-71
2023/07/14 08:13:17;;;;;;;9.37;3.50;;;21.40;66.70;;;;;;5078073;28;20127;-71
2023/07/14 08:15:43;;;;;;;8.43;3.17;;;21.50;66.20;;;;;;5065425;28;20043;-71
2023/07/14 08:18:09;;;;;;;8.83;3.63;;;21.70;65.30;;;;;;5073877;28;20154;-71
2023/07/14 08:20:37;;;;;;;7.27;3.57;;;21.80;64.70;;;;;;5081658;28;20047;-71
2023/07/14 08:23:10;;;;;;;5.07;3.00;;;21.90;63.90;;;;;;5073803;28;20039;-71
2023/07/14 08:25:37;;;;;;;6.43;3.80;;;21.90;63.00;;;;;;5066803;28;20063;-71
2023/07/14 08:28:04;;;;;;;7.33;3.70;;;22.00;63.10;;;;;;5082145;28;20059;-71
2023/07/14 08:30:30;;;;;;;6.13;3.20;;;22.00;62.90;;;;;;5094641;28;20044;-71
2023/07/14 08:32:57;;;;;;;7.37;3.50;;;22.10;62.80;;;;;;5070045;28;20067;-71
2023/07/14 08:35:23;;;;;;;7.27;2.77;;;22.10;62.30;;;;;;5071307;28;20055;-71
2023/07/14 08:37:49;;;;;;;7.90;2.90;;;22.10;62.70;;;;;;5078339;28;20047;-71
2023/07/14 08:40:20;;;;;;;5.27;2.80;;;22.00;61.90;;;;;;5076443;28;20046;-71
2023/07/14 08:43:09;;;;;;;4.83;2.30;;;21.90;62.30;;;;;;5066050;28;20051;-71
2023/07/14 08:46:08;;;;;;;5.73;2.47;;;22.10;62.60;;;;;;5081840;28;20035;-71
2023/07/14 08:48:37;;;;;;;7.37;2.77;;;22.30;61.50;;;;;;5063677;28;20540;-71
2023/07/14 08:51:19;;;;;;;9.67;2.37;;;22.40;60.10;;;;;;5075472;28;20672;-71
2023/07/14 08:53:55;;;;;;;6.70;2.50;;;22.50;59.20;;;;;;5067474;28;20067;-71
2023/07/14 08:56:21;;;;;;;6.37;2.47;;;22.40;59.70;;;;;;5085868;28;20840;-71
2023/07/14 08:58:50;;;;;;;5.93;2.83;;;22.40;59.90;;;;;;5100188;28;20039;-71
2023/07/14 09:01:19;;;;;;;5.23;2.67;;;22.20;59.90;;;;;;5079988;28;20040;-71
2023/07/14 09:03:55;;;;;;;6.83;3.03;;;22.10;60.70;;;;;;5071799;28;20104;-71
2023/07/14 09:06:33;;;;;;;6.47;3.23;;;22.10;61.50;;;;;;5063289;28;20106;-71
2023/07/14 09:08:59;;;;;;;8.33;2.97;;;21.90;61.10;;;;;;5067035;28;20096;-71
2023/07/14 09:11:40;;;;;;;8.10;3.43;;;21.60;62.20;;;;;;5065515;28;20543;-71
2023/07/14 09:14:34;;;;;;;6.43;2.70;;;21.40;63.00;;;;;;5098563;28;20193;-71
2023/07/14 09:17:23;;;;;;;6.10;2.80;;;21.40;63.50;;;;;;5077382;28;20047;-71
2023/07/14 09:20:16;;;;;;;6.77;3.20;;;21.40;63.30;;;;;;5107897;27;20113;-71
2023/07/14 09:23:21;;;;;;;6.93;3.07;;;21.50;63.60;;;;;;5061606;28;20052;-71
2023/07/14 09:26:15;;;;;;;4.20;2.42;;;21.70;63.40;;;;;;5070075;27;20120;-71
2023/07/14 09:28:44;;;;;;;5.60;2.60;;;21.90;62.20;;;;;;5065649;28;20144;-71
2023/07/14 09:31:45;;;;;;;6.60;2.93;;;22.00;61.70;;;;;;5073855;28;20056;-71
2023/07/14 09:34:29;;;;;;;5.23;2.13;;;22.00;61.00;;;;;;5072600;28;20047;-71
2023/07/14 09:36:56;;;;;;;4.07;2.17;;;22.10;61.30;;;;;;5065114;28;20056;-72
2023/07/14 09:39:42;;;;;;;7.27;2.23;;;22.20;60.90;;;;;;5089823;28;20403;-71
2023/07/14 09:42:15;;;;;;;5.23;2.13;;;22.30;59.30;;;;;;5098685;28;20328;-72
2023/07/14 09:44:41;;;;;;;5.93;2.27;;;22.30;60.00;;;;;;5083937;28;20035;-72
2023/07/14 09:47:07;;;;;;;3.90;2.23;;;22.40;60.00;;;;;;5090937;28;20505;-72
2023/07/14 09:49:42;;;;;;;5.87;1.77;;;22.40;59.20;;;;;;5100852;28;20126;-72
2023/07/14 09:52:20;;;;;;;3.40;2.30;;;22.40;58.30;;;;;;5087515;28;20036;-71
2023/07/14 09:54:53;;;;;;;5.73;2.67;;;22.50;59.10;;;;;;5076966;28;20050;-71
2023/07/14 09:57:25;;;;;;;4.43;2.40;;;22.60;59.90;;;;;;5070256;28;20090;-71
2023/07/14 09:59:55;;;;;;;6.33;2.43;;;22.70;59.60;;;;;;5087293;28;20031;-71
2023/07/14 10:02:30;;;;;;;4.47;2.10;;;22.80;59.30;;;;;;5083442;28;20516;-71
2023/07/14 10:05:01;;;;;;;11.30;3.42;;;22.90;57.40;;;;;;5082118;28;20043;-71
2023/07/14 10:07:26;;;;;;;7.33;3.27;;;23.00;57.80;;;;;;5072777;28;20093;-71
2023/07/14 10:10:01;;;;;;;10.00;3.23;;;23.20;58.30;;;;;;5083440;28;20076;-71
2023/07/14 10:12:47;;;;;;;10.77;3.45;;;23.30;58.00;;;;;;5088115;28;20040;-71
2023/07/14 10:15:34;;;;;;;7.80;3.30;;;23.20;58.10;;;;;;5072140;28;20563;-72
2023/07/14 10:18:15;;;;;;;7.10;3.20;;;23.00;57.80;;;;;;5079252;28;20095;-71
2023/07/14 10:20:53;;;;;;;7.40;4.37;;;22.90;59.20;;;;;;5086909;28;20052;-71
2023/07/14 10:23:20;;;;;;;8.73;4.00;;;22.60;59.30;;;;;;5112225;28;20043;-71
2023/07/14 10:25:51;;;;;;;9.37;4.17;;;22.50;60.80;;;;;;5080034;28;20597;-71
2023/07/14 10:28:23;;;;;;;8.47;3.90;;;22.60;60.50;;;;;;5063596;28;20039;-71
2023/07/14 10:31:08;;;;;;;11.87;3.90;;;22.50;60.00;;;;;;5079532;28;20126;-71
2023/07/14 10:33:48;;;;;;;10.05;4.38;;;22.60;60.50;;;;;;5084158;28;20056;-71
2023/07/14 10:36:20;;;;;;;9.60;4.37;;;22.70;59.80;;;;;;5070571;28;20040;-71
2023/07/14 10:38:58;;;;;;;7.70;4.07;;;22.70;60.10;;;;;;5089817;28;20420;-71
2023/07/14 10:41:25;;;;;;;9.53;4.20;;;22.80;60.60;;;;;;5074719;28;20040;-71
2023/07/14 10:43:59;;;;;;;6.93;3.80;;;23.00;60.30;;;;;;5085732;28;20039;-71
2023/07/14 10:46:34;;;;;;;8.05;3.78;;;23.30;59.90;;;;;;5085502;28;20035;-71
2023/07/14 10:49:20;;;;;;;9.43;4.00;;;23.60;57.70;;;;;;5090952;28;20100;-72
2023/07/14 10:51:55;;;;;;;7.37;3.73;;;23.70;57.20;;;;;;5090576;28;20039;-72
2023/07/14 10:54:36;;;;;;;;;;;23.80;56.50;;;;;;5076595;28;20047;-71
2023/07/14 10:57:23;;;;;;;9.23;3.13;;;23.90;55.70;;;;;;5091394;28;19972;-72
2023/07/14 10:59:56;;;;;;;8.90;4.10;;;24.00;55.70;;;;;;5076915;28;20074;-71
2023/07/14 11:02:42;;;;;;;10.17;4.20;;;24.00;56.40;;;;;;5088012;28;20043;-71
2023/07/14 11:05:15;;;;;;;6.43;2.67;;;24.20;55.80;;;;;;5089162;28;20169;-71
2023/07/14 11:07:41;;;;;;;6.53;3.43;;;24.30;55.80;;;;;;5073088;28;20035;-72
2023/07/14 11:10:39;;;;;;;7.77;3.13;;;24.50;54.50;;;;;;5071509;28;20103;-71
2023/07/14 11:14:02;;;;;;;7.03;3.20;;;24.60;53.40;;;;;;5093334;28;20046;-71
2023/07/14 11:16:38;;;;;;;7.40;3.40;;;24.80;53.40;;;;;;4992623;28;20030;-71
2023/07/14 11:19:08;;;;;;;8.80;3.30;;;25.00;54.40;;;;;;4995504;28;20045;-71
2023/07/14 11:22:00;;;;;;;6.13;3.37;;;25.20;54.00;;;;;;5055770;28;20600;-71
2023/07/14 11:24:53;;;;;;;5.90;2.97;;;25.10;52.80;;;;;;5073675;28;20067;-71
2023/07/14 11:27:36;;;;;;;6.97;3.43;;;24.60;52.40;;;;;;5088711;28;20360;-71
2023/07/14 11:30:15;;;;;;;6.53;3.70;;;24.30;53.70;;;;;;5088513;28;20070;-71
2023/07/14 11:32:59;;;;;;;6.53;3.40;;;24.40;54.50;;;;;;5080857;28;20032;-71
2023/07/14 11:35:35;;;;;;;13.30;4.38;;;24.50;55.40;;;;;;5118868;27;20415;-71
2023/07/14 11:38:31;;;;;;;8.03;4.73;;;24.80;55.50;;;;;;5090000;28;20086;-71
2023/07/14 11:40:58;;;;;;;8.17;3.77;;;25.10;54.10;;;;;;5088428;28;20046;-71
2023/07/14 11:43:29;;;;;;;8.23;4.00;;;25.40;55.20;;;;;;5081227;28;20066;-71
2023/07/14 11:46:08;;;;;;;7.27;3.33;;;25.80;54.70;;;;;;5087755;28;20044;-71
2023/07/14 11:48:43;;;;;;;8.07;4.07;;;26.00;52.60;;;;;;5090313;28;20036;-71
2023/07/14 11:51:15;;;;;;;10.13;3.90;;;25.90;52.80;;;;;;5072684;28;20122;-71
2023/07/14 11:54:03;;;;;;;10.40;4.83;;;25.50;53.40;;;;;;5089702;28;20035;-71
2023/07/14 11:56:40;;;;;;;8.10;4.17;;;25.30;53.90;;;;;;5045547;28;20154;-71
2023/07/14 11:59:09;;;;;;;10.97;4.47;;;25.10;55.20;;;;;;5089985;28;20454;-72
2023/07/14 12:01:44;;;;;;;7.53;4.77;;;25.20;55.30;;;;;;5071918;28;20071;-72
2023/07/14 12:04:27;;;;;;;11.67;4.63;;;25.40;54.40;;;;;;5076216;28;20507;-72
2023/07/14 12:07:19;;;;;;;14.03;5.60;;;25.60;53.20;;;;;;5078273;28;20032;-72
2023/07/14 12:10:11;;;;;;;6.67;4.07;;;25.70;52.80;;;;;;5072982;28;20040;-71
2023/07/14 12:12:39;;;;;;;7.07;3.17;;;25.80;53.50;;;;;;5117039;27;20054;-71
2023/07/14 12:15:42;;;;;;;8.67;3.37;;;25.70;52.30;;;;;;5089021;28;20047;-71
2023/07/14 12:18:35;;;;;;;7.07;3.77;;;25.60;51.50;;;;;;5081531;28;20078;-71
2023/07/14 12:21:16;;;;;;;9.00;3.87;;;25.70;51.80;;;;;;5080103;28;20596;-71
2023/07/14 12:23:44;;;;;;;10.57;4.40;;;25.80;52.30;;;;;;5074544;28;20039;-71
2023/07/14 12:26:14;;;;;;;6.53;3.07;;;25.90;51.40;;;;;;5065810;28;20035;-71
2023/07/14 12:28:40;;;;;;;8.20;4.07;;;25.80;51.10;;;;;;5075609;28;20031;-71
2023/07/14 12:31:18;;;;;;;8.27;4.27;;;25.70;50.80;;;;;;5067066;28;20071;-72
2023/07/14 12:33:45;;;;;;;6.03;3.80;;;25.50;51.30;;;;;;5066423;28;20047;-71
2023/07/14 12:36:31;;;;;;;9.83;5.03;;;25.50;52.50;;;;;;5081544;28;20093;-71
2023/07/14 12:38:58;;;;;;;9.77;4.60;;;25.30;51.20;;;;;;5073785;28;20048;-71
2023/07/14 12:41:28;;;;;;;9.43;5.00;;;25.20;51.90;;;;;;5082547;28;20054;-71
2023/07/14 12:43:59;;;;;;;7.93;4.80;;;25.10;52.30;;;;;;5091253;28;20039;-72
2023/07/14 12:46:27;;;;;;;8.90;4.70;;;25.00;52.10;;;;;;5096540;28;20036;-72
2023/07/14 12:49:05;;;;;;;9.60;4.60;;;24.80;52.30;;;;;;5073666;28;20039;-72
2023/07/14 12:51:36;;;;;;;9.40;5.17;;;24.70;52.30;;;;;;5083030;28;20480;-72
2023/07/14 12:54:05;;;;;;;9.87;5.30;;;24.60;53.10;;;;;;5082397;28;20521;-72
2023/07/14 12:56:32;;;;;;;9.43;4.97;;;24.30;53.50;;;;;;5087981;28;20075;-72
2023/07/14 12:58:59;;;;;;;11.27;4.97;;;24.00;54.40;;;;;;5084367;28;20115;-72
2023/07/14 13:01:25;;;;;;;10.47;5.37;;;23.80;54.70;;;;;;5085716;28;20163;-72